createdAt,value
2022-09-15T00:00:27.387Z,19.73
2022-09-15T00:02:54.092Z,18.67
2022-09-15T00:05:20.859Z,24.17
2022-09-15T00:07:47.713Z,18.15
2022-09-15T00:10:14.312Z,16.90
2022-09-15T00:12:41.439Z,17.13
2022-09-15T00:15:08.487Z,17.95
2022-09-15T00:17:35.031Z,14.35
2022-09-15T00:20:02.033Z,13.02
2022-09-15T00:22:28.620Z,18.70
2022-09-15T00:24:55.196Z,13.77
2022-09-15T00:27:21.753Z,14.07
2022-09-15T00:29:48.314Z,13.50
2022-09-15T00:32:14.927Z,17.48
2022-09-15T00:34:41.592Z,13.13
2022-09-15T00:37:08.175Z,15.75
2022-09-15T00:39:34.748Z,14.18
2022-09-15T00:42:03.214Z,17.10
2022-09-15T00:44:35.777Z,16.58
2022-09-15T00:47:18.612Z,18.73
2022-09-15T00:49:49.059Z,14.07
2022-09-15T00:52:39.045Z,17.00
2022-09-15T00:55:28.058Z,18.30
2022-09-15T00:58:07.671Z,24.65
2022-09-15T01:00:35.161Z,21.20
2022-09-15T01:03:03.083Z,15.13
2022-09-15T01:05:42.236Z,15.38
2022-09-15T01:08:16.074Z,21.67
2022-09-15T01:10:42.689Z,18.38
2022-09-15T01:13:11.851Z,21.05
2022-09-15T01:15:49.863Z,19.15
2022-09-15T01:18:20.434Z,16.52
2022-09-15T01:20:58.898Z,20.88
2022-09-15T01:23:58.524Z,12.88
2022-09-15T01:26:46.427Z,12.50
2022-09-15T01:29:38.395Z,14.63
2022-09-15T01:32:42.537Z,19.23
2022-09-15T01:35:33.669Z,15.38
2022-09-15T01:38:17.010Z,19.08
2022-09-15T01:41:17.587Z,13.23
2022-09-15T01:44:06.687Z,21.35
2022-09-15T01:46:37.192Z,17.73
2022-09-15T01:49:06.725Z,35.88
2022-09-15T01:51:34.505Z,19.48
2022-09-15T01:54:05.353Z,14.02
2022-09-15T01:56:32.716Z,17.23
2022-09-15T01:58:59.606Z,14.80
2022-09-15T02:01:40.357Z,18.17
2022-09-15T02:04:25.354Z,15.07
2022-09-15T02:07:07.292Z,14.20
2022-09-15T02:09:40.087Z,18.08
2022-09-15T02:12:33.949Z,22.33
2022-09-15T02:15:07.842Z,15.27
2022-09-15T02:17:40.246Z,14.77
2022-09-15T02:23:08.417Z,15.07
2022-09-15T02:25:41.536Z,16.98
2022-09-15T02:28:12.373Z,14.65
2022-09-15T02:30:41.871Z,22.80
2022-09-15T02:33:14.216Z,16.75
2022-09-15T02:38:09.649Z,19.40
2022-09-15T02:40:39.681Z,19.05
2022-09-15T02:43:15.026Z,13.60
2022-09-15T02:45:42.033Z,20.10
2022-09-15T02:48:11.941Z,17.02
2022-09-15T02:50:39.312Z,21.33
2022-09-15T02:53:05.965Z,15.63
2022-09-15T02:55:33.490Z,19.88
2022-09-15T02:58:00.284Z,15.82
2022-09-15T03:00:28.302Z,19.17
2022-09-15T03:02:55.989Z,29.63
2022-09-15T03:05:25.420Z,22.40
2022-09-15T03:07:52.683Z,26.35
2022-09-15T03:10:19.989Z,21.38
2022-09-15T03:12:52.729Z,19.83
2022-09-15T03:15:22.274Z,23.75
2022-09-15T03:17:49.540Z,20.90
2022-09-15T03:20:21.756Z,26.52
2022-09-15T03:22:49.522Z,20.63
2022-09-15T03:25:16.982Z,26.23
2022-09-15T03:27:43.644Z,25.55
2022-09-15T03:30:11.847Z,29.58
2022-09-15T03:32:38.518Z,33.15
2022-09-15T03:35:06.668Z,28.15
2022-09-15T03:37:33.737Z,19.60
2022-09-15T03:40:00.620Z,19.55
2022-09-15T03:42:27.255Z,23.23
2022-09-15T03:44:53.813Z,24.38
2022-09-15T03:47:20.424Z,17.27
2022-09-15T03:49:47.508Z,19.10
2022-09-15T03:52:14.082Z,17.80
2022-09-15T03:54:40.714Z,23.15
2022-09-15T03:57:07.393Z,17.05
2022-09-15T03:59:33.928Z,18.63
2022-09-15T04:02:00.602Z,28.52
2022-09-15T04:04:27.293Z,22.95
2022-09-15T04:06:53.844Z,18.10
2022-09-15T04:09:21.413Z,25.75
2022-09-15T04:11:48.076Z,20.52
2022-09-15T04:14:14.816Z,34.03
2022-09-15T04:16:41.463Z,17.92
2022-09-15T04:19:08.161Z,15.82
2022-09-15T04:21:34.787Z,21.52
2022-09-15T04:24:01.672Z,15.73
2022-09-15T04:26:35.134Z,19.75
2022-09-15T04:29:04.443Z,16.35
2022-09-15T04:31:32.718Z,28.15
2022-09-15T04:33:59.463Z,12.50
2022-09-15T04:36:28.223Z,15.20
2022-09-15T04:38:55.475Z,15.07
2022-09-15T04:41:22.605Z,13.40
2022-09-15T04:43:49.695Z,15.93
2022-09-15T04:46:18.149Z,10.20
2022-09-15T04:48:48.761Z,16.25
2022-09-15T04:51:19.036Z,12.77
2022-09-15T04:53:46.415Z,14.10
2022-09-15T04:56:15.874Z,26.40
2022-09-15T04:58:48.977Z,13.40
2022-09-15T05:01:18.889Z,20.38
2022-09-15T05:03:46.437Z,11.27
2022-09-15T05:06:15.534Z,17.83
2022-09-15T05:08:42.277Z,14.02
2022-09-15T05:11:11.254Z,13.88
2022-09-15T05:13:39.504Z,14.18
2022-09-15T05:16:20.380Z,16.30
2022-09-15T05:18:49.266Z,10.02
2022-09-15T05:21:18.218Z,15.23
2022-09-15T05:23:45.227Z,12.00
2022-09-15T05:26:14.013Z,15.65
2022-09-15T05:28:41.557Z,14.90
2022-09-15T05:31:14.688Z,11.00
2022-09-15T05:33:41.305Z,11.60
2022-09-15T05:36:08.171Z,13.52
2022-09-15T05:38:34.781Z,18.15
2022-09-15T05:41:07.177Z,16.10
2022-09-15T05:46:02.169Z,16.52
2022-09-15T05:48:29.170Z,9.23
2022-09-15T05:50:56.618Z,12.93
2022-09-15T05:53:24.079Z,13.85
2022-09-15T05:56:02.364Z,14.63
2022-09-15T05:58:30.361Z,11.63
2022-09-15T06:00:57.418Z,10.18
2022-09-15T06:03:28.763Z,8.90
2022-09-15T06:06:04.805Z,8.20
2022-09-15T06:08:44.421Z,11.93
2022-09-15T06:11:16.663Z,12.75
2022-09-15T06:13:44.150Z,8.25
2022-09-15T06:16:14.443Z,11.80
2022-09-15T06:18:41.729Z,7.65
2022-09-15T06:21:14.005Z,9.90
2022-09-15T06:23:40.951Z,10.70
2022-09-15T06:26:16.667Z,8.70
2022-09-15T06:28:49.732Z,8.65
2022-09-15T06:31:16.871Z,13.52
2022-09-15T06:33:51.230Z,7.78
2022-09-15T06:36:19.571Z,7.50
2022-09-15T06:38:46.679Z,5.82
2022-09-15T06:41:14.630Z,6.45
2022-09-15T06:43:42.038Z,7.55
2022-09-15T06:46:17.684Z,15.70
2022-09-15T06:48:47.561Z,5.88
2022-09-15T06:51:16.978Z,23.30
2022-09-15T06:53:44.016Z,11.35
2022-09-15T06:56:13.321Z,10.93
2022-09-15T06:58:41.095Z,6.97
2022-09-15T07:01:10.543Z,19.58
2022-09-15T07:03:38.934Z,9.15
2022-09-15T07:06:07.881Z,14.85
2022-09-15T07:08:34.811Z,8.15
2022-09-15T07:11:01.622Z,6.03
2022-09-15T07:13:28.214Z,7.00
2022-09-15T07:15:57.366Z,6.10
2022-09-15T07:18:24.779Z,12.85
2022-09-15T07:20:51.996Z,11.77
2022-09-15T07:23:19.081Z,5.22
2022-09-15T07:25:45.688Z,12.85
2022-09-15T07:28:12.721Z,13.25
2022-09-15T07:30:39.558Z,8.63
2022-09-15T07:33:07.517Z,6.15
2022-09-15T07:35:34.147Z,5.93
2022-09-15T07:38:00.708Z,5.30
2022-09-15T07:40:28.848Z,6.55
2022-09-15T07:42:55.962Z,7.65
2022-09-15T07:45:23.523Z,8.02
2022-09-15T07:47:50.243Z,5.38
2022-09-15T07:50:17.118Z,16.23
2022-09-15T07:52:43.970Z,11.85
2022-09-15T07:55:10.733Z,5.40
2022-09-15T07:57:37.491Z,6.05
2022-09-15T08:00:05.093Z,7.68
2022-09-15T08:02:31.812Z,20.38
2022-09-15T08:04:58.468Z,5.35
2022-09-15T08:07:25.063Z,5.22
2022-09-15T08:09:51.758Z,11.48
2022-09-15T08:12:18.602Z,6.45
2022-09-15T08:14:45.201Z,7.13
2022-09-15T08:17:11.973Z,9.57
2022-09-15T08:19:38.577Z,18.40
2022-09-15T08:22:05.579Z,5.75
2022-09-15T08:24:32.233Z,11.23
2022-09-15T08:26:58.810Z,4.57
2022-09-15T08:29:25.723Z,5.30
2022-09-15T08:31:52.362Z,23.02
2022-09-15T08:34:19.072Z,5.47
2022-09-15T08:36:45.613Z,11.90
2022-09-15T08:39:12.409Z,9.35
2022-09-15T08:41:45.533Z,5.72
2022-09-15T08:44:40.918Z,3.53
2022-09-15T08:47:13.598Z,3.38
2022-09-15T08:49:52.517Z,14.73
2022-09-15T08:52:28.408Z,5.43
2022-09-15T08:54:58.849Z,8.95
2022-09-15T08:57:26.166Z,6.47
2022-09-15T08:59:54.777Z,3.60
2022-09-15T09:02:49.757Z,3.80
2022-09-15T09:05:43.209Z,10.43
2022-09-15T09:08:14.634Z,2.45
2022-09-15T09:11:00.003Z,5.13
2022-09-15T09:13:47.032Z,3.35
2022-09-15T09:16:25.590Z,3.08
2022-09-15T09:19:08.625Z,5.55
2022-09-15T09:21:41.946Z,4.97
2022-09-15T09:24:16.928Z,2.47
2022-09-15T09:26:49.130Z,5.43
2022-09-15T09:29:19.076Z,11.13
2022-09-15T09:31:51.016Z,12.88
2022-09-15T09:34:31.154Z,9.38
2022-09-15T09:36:59.554Z,4.95
2022-09-15T09:39:28.054Z,4.50
2022-09-15T09:41:55.027Z,3.25
2022-09-15T09:44:31.533Z,14.88
2022-09-15T09:47:01.970Z,11.40
2022-09-15T09:49:35.311Z,5.20
2022-09-15T09:52:03.636Z,2.28
2022-09-15T09:54:32.925Z,5.40
2022-09-15T09:57:22.202Z,13.75
2022-09-15T09:59:50.553Z,2.20
2022-09-15T10:02:21.793Z,3.25
2022-09-15T10:04:51.612Z,1.73
2022-09-15T10:07:24.558Z,2.08
2022-09-15T10:09:56.980Z,10.18
2022-09-15T10:12:31.882Z,3.17
2022-09-15T10:15:04.511Z,8.15
2022-09-15T10:17:43.415Z,2.42
2022-09-15T10:20:46.453Z,4.70
2022-09-15T10:23:21.472Z,2.65
2022-09-15T10:25:59.662Z,10.43
2022-09-15T10:28:27.386Z,1.35
2022-09-15T10:31:13.249Z,12.27
2022-09-15T10:33:50.466Z,4.07
2022-09-15T10:36:29.451Z,5.70
2022-09-15T10:39:17.910Z,7.05
2022-09-15T10:42:10.803Z,4.43
2022-09-15T10:45:08.636Z,7.43
2022-09-15T10:47:57.110Z,1.92
2022-09-15T10:50:32.273Z,5.57
2022-09-15T10:53:19.408Z,5.28
2022-09-15T10:55:54.482Z,11.48
2022-09-15T10:59:00.822Z,7.78
2022-09-15T11:01:38.514Z,5.60
2022-09-15T11:04:24.894Z,9.45
2022-09-15T11:07:22.594Z,3.45
2022-09-15T11:10:14.244Z,2.63
2022-09-15T11:12:58.016Z,8.77
2022-09-15T11:15:29.454Z,4.63
2022-09-15T11:18:10.383Z,5.67
2022-09-15T11:20:48.199Z,7.97
2022-09-15T11:23:24.330Z,1.67
2022-09-15T11:26:00.706Z,3.42
2022-09-15T11:28:33.837Z,2.20
2022-09-15T11:31:07.008Z,6.03
2022-09-15T11:33:59.639Z,10.25
2022-09-15T11:39:24.774Z,9.27
2022-09-15T11:42:01.669Z,5.55
2022-09-15T11:44:38.009Z,3.95
2022-09-15T11:47:04.548Z,8.02
2022-09-15T11:49:46.452Z,13.18
2022-09-15T11:52:25.909Z,1.67
2022-09-15T11:55:34.192Z,5.22
2022-09-15T11:58:22.890Z,5.43
2022-09-15T12:01:14.724Z,4.90
2022-09-15T12:03:53.540Z,5.90
2022-09-15T12:06:45.991Z,3.75
2022-09-15T12:09:18.425Z,5.55
2022-09-15T12:11:48.126Z,0.60
2022-09-15T12:14:36.893Z,8.55
2022-09-15T12:17:09.690Z,9.70
2022-09-15T12:19:55.708Z,1.90
2022-09-15T12:22:43.582Z,3.08
2022-09-15T12:25:19.938Z,3.95
2022-09-15T12:28:27.392Z,5.38
2022-09-15T12:31:25.436Z,9.75
2022-09-15T12:34:00.942Z,9.27
2022-09-15T12:36:39.421Z,3.10
2022-09-15T12:39:26.326Z,4.70
2022-09-15T12:41:57.890Z,6.82
2022-09-15T12:44:51.752Z,24.73
2022-09-15T12:47:28.288Z,3.15
2022-09-15T12:49:58.860Z,2.53
2022-09-15T12:52:26.169Z,8.50
2022-09-15T12:54:57.126Z,5.40
2022-09-15T12:57:32.405Z,1.98
2022-09-15T13:00:20.954Z,2.08
2022-09-15T13:02:50.045Z,1.88
2022-09-15T13:05:41.692Z,5.03
2022-09-15T13:08:16.694Z,5.97
2022-09-15T13:10:59.156Z,1.65
2022-09-15T13:16:02.080Z,5.70
2022-09-15T13:18:30.973Z,5.07
2022-09-15T13:21:04.714Z,7.13
2022-09-15T13:23:36.801Z,6.57
2022-09-15T13:26:06.464Z,3.88
2022-09-15T13:28:34.068Z,1.00
2022-09-15T13:31:29.963Z,2.42
2022-09-15T13:40:43.839Z,1.60
2022-09-15T13:43:38.730Z,4.63
2022-09-15T13:46:36.727Z,17.55
2022-09-15T13:49:19.635Z,2.03
2022-09-15T13:52:01.556Z,5.28
2022-09-15T13:54:28.340Z,1.02
2022-09-15T13:56:59.918Z,1.92
2022-09-15T13:59:32.257Z,1.73
2022-09-15T14:04:32.239Z,1.23
2022-09-15T14:07:01.531Z,3.13
2022-09-15T14:09:35.191Z,3.28
2022-09-15T14:12:09.735Z,14.13
2022-09-15T14:14:41.248Z,5.03
2022-09-15T14:17:43.692Z,4.10
2022-09-15T14:20:24.078Z,5.00
2022-09-15T14:22:51.681Z,2.22
2022-09-15T14:25:20.151Z,4.88
2022-09-15T14:27:56.480Z,27.25
2022-09-15T14:30:32.517Z,0.85
2022-09-15T14:33:01.975Z,6.93
2022-09-15T14:35:46.870Z,10.15
2022-09-15T14:38:25.212Z,2.97
2022-09-15T14:40:54.496Z,2.47
2022-09-15T14:43:31.362Z,2.15
2022-09-15T14:46:14.709Z,2.58
2022-09-15T14:48:41.417Z,1.92
2022-09-15T14:51:28.500Z,2.92
2022-09-15T14:53:59.844Z,1.73
2022-09-15T14:56:31.375Z,1.63
2022-09-15T14:59:01.954Z,13.98
2022-09-15T15:01:34.807Z,3.83
2022-09-15T15:04:18.146Z,4.10
2022-09-15T15:06:53.822Z,5.13
2022-09-15T15:09:44.601Z,14.57
2022-09-15T15:12:35.378Z,3.15
2022-09-15T15:15:02.877Z,1.30
2022-09-15T15:17:35.840Z,6.35
2022-09-15T15:20:08.806Z,4.88
2022-09-15T15:22:37.516Z,1.48
2022-09-15T15:25:32.291Z,5.93
2022-09-15T15:28:00.240Z,2.78
2022-09-15T15:30:30.583Z,0.73
2022-09-15T15:32:58.757Z,2.35
2022-09-15T15:35:25.886Z,3.35
2022-09-15T15:38:28.041Z,2.30
2022-09-15T15:41:04.369Z,1.48
2022-09-15T15:43:31.730Z,1.85
2022-09-15T15:46:01.214Z,1.10
2022-09-15T15:48:36.840Z,2.47
2022-09-15T15:51:05.626Z,2.63
2022-09-15T15:53:32.217Z,0.85
2022-09-15T15:56:00.124Z,2.47
2022-09-15T15:58:26.958Z,1.35
2022-09-15T16:00:56.197Z,7.97
2022-09-15T16:03:24.460Z,1.95
2022-09-15T16:05:54.334Z,0.93
2022-09-15T16:08:28.055Z,1.75
2022-09-15T16:10:55.910Z,2.72
2022-09-15T16:13:23.836Z,1.90
2022-09-15T16:15:52.450Z,5.40
2022-09-15T16:18:18.993Z,2.97
2022-09-15T16:20:45.618Z,5.07
2022-09-15T16:23:15.616Z,2.38
2022-09-15T16:26:05.749Z,2.22
2022-09-15T16:28:32.332Z,1.48
2022-09-15T16:30:59.143Z,4.85
2022-09-15T16:33:26.337Z,16.60
2022-09-15T16:36:03.791Z,2.05
2022-09-15T16:38:30.443Z,3.80
2022-09-15T16:40:57.199Z,0.22
2022-09-15T16:43:23.997Z,3.97
2022-09-15T16:45:51.923Z,1.50
2022-09-15T16:48:19.449Z,2.17
2022-09-15T16:51:02.441Z,1.48
2022-09-15T16:53:34.078Z,1.08
2022-09-15T16:56:00.917Z,3.13
2022-09-15T16:58:28.020Z,3.75
2022-09-15T17:00:54.881Z,1.33
2022-09-15T17:03:24.124Z,1.70
2022-09-15T17:05:55.568Z,0.80
2022-09-15T17:08:26.110Z,0.63
2022-09-15T17:10:53.488Z,2.10
2022-09-15T17:13:25.082Z,1.27
2022-09-15T17:15:54.695Z,1.58
2022-09-15T17:18:21.926Z,1.83
2022-09-15T17:20:49.693Z,2.58
2022-09-15T17:23:27.895Z,0.50
2022-09-15T17:25:59.533Z,3.55
2022-09-15T17:28:28.783Z,9.23
2022-09-15T17:31:06.265Z,1.42
2022-09-15T17:33:33.323Z,5.15
2022-09-15T17:36:02.122Z,1.30
2022-09-15T17:38:28.734Z,3.83
2022-09-15T17:40:55.574Z,1.83
2022-09-15T17:43:25.127Z,9.98
2022-09-15T17:45:51.940Z,1.70
2022-09-15T17:48:18.764Z,3.50
2022-09-15T17:50:46.196Z,1.45
2022-09-15T17:53:15.100Z,1.83
2022-09-15T17:55:42.024Z,2.55
2022-09-15T17:58:09.417Z,1.42
2022-09-15T18:00:38.146Z,3.67
2022-09-15T18:03:20.978Z,5.72
2022-09-15T18:05:48.016Z,2.92
2022-09-15T18:08:16.364Z,3.40
2022-09-15T18:10:43.578Z,5.85
2022-09-15T18:13:15.254Z,5.22
2022-09-15T18:15:42.841Z,7.20
2022-09-15T18:18:16.160Z,2.05
2022-09-15T18:20:43.464Z,5.65
2022-09-15T18:23:15.081Z,2.50
2022-09-15T18:25:42.054Z,3.45
2022-09-15T18:28:09.239Z,2.40
2022-09-15T18:30:40.565Z,4.20
2022-09-15T18:33:17.798Z,7.80
2022-09-15T18:35:45.250Z,1.88
2022-09-15T18:38:12.394Z,1.23
2022-09-15T18:40:43.961Z,0.90
2022-09-15T18:43:10.699Z,3.20
2022-09-15T18:45:37.497Z,2.95
2022-09-15T18:48:07.985Z,2.25
2022-09-15T18:50:37.990Z,1.30
2022-09-15T18:53:05.375Z,3.60
2022-09-15T18:55:32.591Z,2.45
2022-09-15T18:58:01.137Z,4.07
2022-09-15T19:00:28.643Z,2.97
2022-09-15T19:03:00.052Z,8.18
2022-09-15T19:05:27.459Z,2.23
2022-09-15T19:07:55.235Z,2.67
2022-09-15T19:10:22.534Z,3.42
2022-09-15T19:12:49.460Z,5.70
2022-09-15T19:15:16.301Z,3.95
2022-09-15T19:17:43.782Z,2.40
2022-09-15T19:20:12.732Z,4.88
2022-09-15T19:22:40.781Z,3.40
2022-09-15T19:25:09.022Z,2.70
2022-09-15T19:27:36.638Z,3.03
2022-09-15T19:30:04.105Z,1.98
2022-09-15T19:32:32.929Z,5.45
2022-09-15T19:34:59.684Z,3.33
2022-09-15T19:37:26.570Z,1.58
2022-09-15T19:39:53.302Z,2.70
2022-09-15T19:42:20.016Z,1.98
2022-09-15T19:44:47.782Z,5.45
2022-09-15T19:47:14.806Z,1.00
2022-09-15T19:49:41.513Z,3.60
2022-09-15T19:52:08.442Z,3.83
2022-09-15T19:54:36.130Z,5.05
2022-09-15T19:57:03.647Z,7.45
2022-09-15T19:59:31.856Z,1.35
2022-09-15T20:01:59.970Z,2.88
2022-09-15T20:04:27.391Z,0.93
2022-09-15T20:06:54.100Z,2.60
2022-09-15T20:09:20.883Z,1.27
2022-09-15T20:11:47.729Z,1.70
2022-09-15T20:14:14.953Z,2.95
2022-09-15T20:16:41.732Z,2.70
2022-09-15T20:19:08.440Z,2.75
2022-09-15T20:21:53.003Z,2.90
2022-09-15T20:24:21.359Z,1.67
2022-09-15T20:26:48.344Z,3.25
2022-09-15T20:29:15.182Z,5.00
2022-09-15T20:31:42.057Z,7.90
2022-09-15T20:34:08.662Z,2.53
2022-09-15T20:36:38.641Z,5.85
2022-09-15T20:39:09.188Z,3.10
2022-09-15T20:41:36.887Z,1.58
2022-09-15T20:44:05.103Z,6.55
2022-09-15T20:46:31.657Z,7.03
2022-09-15T20:48:58.212Z,3.55
2022-09-15T20:51:27.867Z,1.73
2022-09-15T20:53:56.115Z,9.35
2022-09-15T20:56:25.478Z,3.13
2022-09-15T20:58:57.591Z,1.55
2022-09-15T21:01:33.466Z,2.25
2022-09-15T21:04:00.153Z,5.53
2022-09-15T21:06:27.777Z,4.03
2022-09-15T21:08:58.480Z,4.38
2022-09-15T21:11:26.629Z,2.38
2022-09-15T21:13:54.329Z,4.53
2022-09-15T21:16:25.061Z,7.18
2022-09-15T21:18:51.773Z,6.75
2022-09-15T21:21:19.845Z,6.15
2022-09-15T21:23:55.113Z,8.13
2022-09-15T21:26:26.731Z,4.32
2022-09-15T21:28:54.507Z,2.75
2022-09-15T21:31:30.644Z,4.65
2022-09-15T21:33:58.088Z,9.00
2022-09-15T21:36:30.518Z,3.08
2022-09-15T21:41:28.966Z,3.97
2022-09-15T21:43:57.963Z,3.65
2022-09-15T21:46:27.230Z,1.92
2022-09-15T21:48:56.131Z,1.88
2022-09-15T21:51:25.192Z,3.58
2022-09-15T21:53:53.570Z,5.55
2022-09-15T21:56:21.184Z,2.92
2022-09-15T21:58:48.357Z,7.13
2022-09-15T22:01:22.631Z,6.78
2022-09-15T22:03:54.566Z,2.72
2022-09-15T22:06:27.430Z,3.80
2022-09-15T22:08:55.107Z,2.53
2022-09-15T22:11:22.325Z,9.23
2022-09-15T22:13:49.027Z,2.72
2022-09-15T22:16:17.892Z,9.80
2022-09-15T22:18:45.525Z,5.45
2022-09-15T22:21:18.494Z,18.38
2022-09-15T22:23:47.171Z,6.03
2022-09-15T22:26:19.848Z,6.00
2022-09-15T22:28:46.783Z,2.00
2022-09-15T22:31:16.407Z,3.08
2022-09-15T22:33:43.246Z,5.63
2022-09-15T22:36:15.568Z,9.50
2022-09-15T22:41:14.178Z,1.90
2022-09-15T22:43:42.378Z,1.85
2022-09-15T22:46:09.797Z,6.43
2022-09-15T22:48:40.975Z,5.85
2022-09-15T22:51:11.005Z,6.22
2022-09-15T22:53:37.727Z,1.40
2022-09-15T22:56:17.057Z,1.75
2022-09-15T22:58:44.219Z,2.67
2022-09-15T23:01:14.057Z,2.00
2022-09-15T23:03:41.453Z,2.13
2022-09-15T23:06:08.400Z,3.63
2022-09-15T23:08:36.475Z,4.95
2022-09-15T23:11:05.011Z,7.22
2022-09-15T23:13:31.967Z,8.55
2022-09-15T23:15:58.618Z,3.35
2022-09-15T23:18:26.817Z,3.53
2022-09-15T23:21:02.361Z,2.15
2022-09-15T23:23:29.898Z,4.75
2022-09-15T23:25:56.692Z,6.78
2022-09-15T23:28:23.386Z,7.75
2022-09-15T23:30:54.426Z,2.50
2022-09-15T23:33:22.726Z,3.13
2022-09-15T23:35:49.676Z,3.90
2022-09-15T23:38:17.945Z,1.65
2022-09-15T23:40:45.051Z,4.22
2022-09-15T23:43:12.550Z,6.03
2022-09-15T23:45:39.244Z,24.13
2022-09-15T23:48:08.241Z,4.82
2022-09-15T23:50:36.208Z,10.85
2022-09-15T23:53:03.278Z,3.42
2022-09-15T23:55:30.103Z,2.20
2022-09-15T23:57:56.716Z,7.93
